• Join FlightAware (Why Join?)
  • Login
  • US Flag 
02:26PM EDT


 

Airport Tracker/Info


-or-


 

Live Flight TrackerFlight Track Log ✈ UPS1269 ✈ 26-Jun-2013 ✈ KGSO - KSDF

Flight Track Log - Related Links

Times and Time Zones

All times are in EDT time to prevent confusion due to time zone crossing. See the UPS1269 flight status page for this flight to view local times or setup timezone preferences in your user account.

Time Position Orientation Groundspeed Altitude Reporting Facility
EDT Latitude Longitude Course Direction KTS MPH feet Rate Location/Type
12:13AM 36.0990 -80.1910 313° West 294 338 10,500  Level FlightAware
12:14AM 36.1500 -80.2450 319° Northwest 354 407 11,500 660 Climbing FlightAware
12:14AM 36.1980 -80.2800 330° Northwest 354 407 11,500 2,280 Level FlightAware
12:15AM 36.2792 -80.3814 330° Northwest 329 379 15,400 2,160 Climbing Atlanta Center
12:21AM 36.5950 -81.2070 330° Northwest 476 548 27,100 1,860 Climbing FlightAware
12:22AM 36.6310 -81.3060 294° West 480 552 28,100 1,620 Climbing FlightAware
12:23AM 36.6720 -81.4140 295° West 478 550 29,400 1,800 Climbing FlightAware
12:23AM 36.7110 -81.5180 295° West 471 542 30,700 1,980 Climbing FlightAware
12:24AM 36.7294 -81.5694 294° West 467 537 31,400 1,560 Climbing FlightAware ADS-B
12:24AM 36.7580 -81.6451 295° West 468 539 32,000 1,080 Climbing FlightAware ADS-B
12:25AM 36.7991 -81.7560 295° West 472 543 32,800 1,140 Climbing FlightAware ADS-B
12:25AM 36.8250 -81.8270 295° West 468 539 33,500 1,380 Climbing FlightAware
12:26AM 36.8384 -81.8639 294° West 467 537 33,800 660 Climbing FlightAware ADS-B
12:26AM 36.8665 -81.9421 294° West 464 534 34,000 120 Climbing FlightAware ADS-B
12:27AM 36.9020 -82.0380 295° West 457 526 34,000  Level FlightAware
12:27AM 36.9168 -82.0790 294° West 456 525 34,000  Level FlightAware ADS-B
12:28AM 36.9511 -82.1727 295° West 458 527 34,000  Level FlightAware ADS-B
12:28AM 36.9784 -82.2477 295° West 458 527 34,000  Level FlightAware ADS-B
12:29AM 37.0051 -82.3223 294° West 458 527 34,000  Level FlightAware ADS-B
12:29AM 37.0326 -82.3973 295° West 460 529 34,000  Level FlightAware ADS-B
12:29AM 37.0430 -82.4265 294° West 460 529 34,000  Level FlightAware ADS-B
12:30AM 37.0543 -82.4667 289° West 460 529 34,000  Level FlightAware ADS-B
12:30AM 37.0732 -82.5425 287° West 457 526 34,000  Level FlightAware ADS-B
12:31AM 37.0927 -82.6229 287° West 453 521 34,000  Level FlightAware ADS-B
12:31AM 37.1115 -82.6978 287° West 452 520 34,000  Level FlightAware ADS-B
12:32AM 37.1308 -82.7730 288° West 455 524 34,000  Level FlightAware ADS-B
12:32AM 37.1501 -82.8511 287° West 456 525 34,000  Level FlightAware ADS-B
12:33AM 37.1691 -82.9263 288° West 454 522 34,000  Level FlightAware ADS-B
12:33AM 37.1881 -83.0017 288° West 457 526 34,000  Level FlightAware ADS-B
12:34AM 37.2069 -83.0776 287° West 455 524 34,000  Level FlightAware ADS-B
12:34AM 37.2256 -83.1527 287° West 453 521 34,000 -540 Level FlightAware ADS-B
12:35AM 37.2540 -83.2690 287° West 457 526 33,300 -960 Descending FlightAware
12:35AM 37.2667 -83.3218 287° West 457 526 33,000 -1,080 Descending FlightAware ADS-B
12:36AM 37.2954 -83.4370 287° West 449 517 32,200 -1,020 Descending FlightAware ADS-B
12:37AM 37.3142 -83.5162 287° West 442 509 31,700 -1,020 Descending FlightAware ADS-B
12:37AM 37.3322 -83.5897 287° West 441 507 31,200 -1,080 Descending FlightAware ADS-B
12:38AM 37.3514 -83.6676 287° West 437 503 30,600 -1,140 Descending FlightAware ADS-B
12:38AM 37.3753 -83.7680 287° West 423 487 29,800 -1,260 Descending FlightAware ADS-B
12:39AM 37.3923 -83.8377 287° West 414 476 29,100 -1,500 Descending FlightAware ADS-B
12:40AM 37.4159 -83.9358 287° West 408 470 28,000 -1,500 Descending FlightAware ADS-B
12:40AM 37.4320 -84.0054 286° West 402 463 27,300 -1,440 Descending FlightAware ADS-B
12:41AM 37.4502 -84.0811 287° West 397 457 26,500 -1,500 Descending FlightAware ADS-B
12:42AM 37.4802 -84.2286 284° West 385 443 24,800 -1,500 Descending FlightAware ADS-B
12:42AM 37.4964 -84.2937 287° West 375 432 24,100 -1,380 Descending FlightAware ADS-B
12:43AM 37.5120 -84.3554 288° West 367 422 23,400 -1,800 Descending FlightAware ADS-B
12:43AM 37.5273 -84.4205 287° West 365 420 22,300 -2,340 Descending FlightAware ADS-B
12:45AM 37.5657 -84.5801 287° West 379 436 19,200 -2,340 Descending FlightAware ADS-B
12:46AM 37.5958 -84.7128 287° West 371 427 16,700 -2,100 Descending Indianapolis Center
12:47AM 37.6244 -84.8314 287° West 354 407 14,700 -1,920 Descending Indianapolis Center
12:48AM 37.6542 -84.9403 289° West 330 380 12,800 -1,740 Descending Indianapolis Center
12:49AM 37.7214 -84.9986 326° Northwest 291 335 11,200 -900 Descending Indianapolis Center
12:54AM 37.9390 -85.3870 326° Northwest 217 250 7,100 -720 Descending FlightAware
12:55AM 37.9420 -85.4190 277° West 216 249 7,100  Level FlightAware
12:55AM 37.9460 -85.4580 277° West 215 247 7,100  Level FlightAware
12:56AM 37.9490 -85.4930 276° West 215 247 7,100  Level FlightAware
12:56AM 37.9530 -85.5300 278° West 219 252 7,100  Level FlightAware
12:57AM 37.9570 -85.5500 284° West 221 254 7,100 -300 Level FlightAware
12:57AM 37.9610 -85.5590 299° West 227 261 7,000 -1,080 Descending FlightAware
12:57AM 37.9800 -85.5700 335° Northwest 239 275 6,600 -960 Descending FlightAware
12:57AM 38.0070 -85.5680 North 231 266 6,300 -600 Descending FlightAware
12:58AM 38.0370 -85.5670 North 216 249 6,100 -240 Descending FlightAware
12:58AM 38.0590 -85.5660 North 214 246 6,100  Level FlightAware
12:59AM 38.0800 -85.5700 351° North 210 242 6,100  Level FlightAware
12:59AM 38.1050 -85.5770 348° North 196 226 6,100  Level FlightAware
12:59AM 38.1160 -85.5810 344° North 191 220 6,100  Level FlightAware
12:59AM 38.1230 -85.5830 347° North 190 219 6,100 -420 Level FlightAware
01:02AM 38.2520 -85.6200 347° North 188 216 5,100 -360 Descending FlightAware
01:02AM 38.2790 -85.6270 348° North 190 219 5,100  Level FlightAware
01:03AM 38.3030 -85.6350 345° North 191 220 5,100  Level FlightAware
01:03AM 38.3260 -85.6410 348° North 188 216 5,100  Level FlightAware
01:04AM 38.3390 -85.6450 346° North 188 216 5,100 -600 Level FlightAware
01:04AM 38.3620 -85.6520 347° North 189 217 4,700 -1,020 Descending FlightAware
01:05AM 38.3770 -85.6730 312° West 171 197 4,200 -660 Descending FlightAware
01:05AM 38.3730 -85.7000 259° West 168 193 4,100 -120 Descending FlightAware
01:05AM 38.3680 -85.7280 257° West 171 197 4,100 -120 Level FlightAware
01:06AM 38.3590 -85.7510 243° Southwest 178 205 4,000 -480 Descending FlightAware
01:06AM 38.3460 -85.7570 200° South 181 208 3,800 -1,020 Descending FlightAware
01:07AM 38.3240 -85.7630 192° South 184 212 3,300 -1,140 Descending FlightAware
01:07AM 38.3010 -85.7670 188° South 179 206 2,800 -660 Descending FlightAware
01:08AM 38.2790 -85.7640 174° South 150 173 2,700 -660 Descending FlightAware
01:08AM 38.2590 -85.7560 163° South 150 173 2,200 -1,080 Descending FlightAware
01:08AM 38.2430 -85.7500 164° South 136 157 1,700 -900 Descending FlightAware
01:09AM 38.2250 -85.7440 165° South 138 159 1,400 -660 Descending FlightAware
01:09AM 38.2080 -85.7390 167° South 135 155 1,100 -720 Descending FlightAware
01:10AM 38.1930 -85.7340 165° South 134 154 800 -720 Descending FlightAware
01:10AM 38.1780 -85.7280 163° South 110 127 -1,800 Descending FlightAware
01:11AM 38.1720 -85.7280 180° South 33 38  Level FlightAware
01:12AM 38.1760 -85.7330 316° Northwest 28 32  Level FlightAware
01:13AM 38.1780 -85.7380 297° West 31 36  Level FlightAware
01:13AM 38.1790 -85.7420 288° West 25 29  Level FlightAware
01:14AM 38.1740 -85.7420 122° Southeast 26 30  Level FlightAware